Time;durP1;ratioP1;P1;durP2;ratioP2;P2;SDS_P1;SDS_P2;PMS_P1;PMS_P2;Temp;Humidity;BMP_temperature;BMP_pressure;BME280_temperature;BME280_humidity;BME280_pressure;Samples;Min_cycle;Max_cycle;Signal;HPM_P1;HPM_P2
2022/08/05 00:00:50;;;;;;;6.82;5.05;;;26.60;1.00;;;;;;7364530;19;20481;-70
2022/08/05 00:03:20;;;;;;;7.95;5.20;;;26.60;1.00;;;;;;7363030;19;20482;-69
2022/08/05 00:05:53;;;;;;;7.55;4.97;;;26.60;1.00;;;;;;7367500;19;20018;-70
2022/08/05 00:08:49;;;;;;;9.45;5.55;;;26.60;1.00;;;;;;7387436;19;20023;-69
2022/08/05 00:11:21;;;;;;;7.10;5.30;;;26.60;1.00;;;;;;7361402;19;20060;-70
2022/08/05 00:14:04;;;;;;;6.78;5.28;;;26.60;1.00;;;;;;7369328;19;20498;-69
2022/08/05 00:16:45;;;;;;;6.82;5.10;;;26.60;1.00;;;;;;7366476;19;20003;-69
2022/08/05 00:19:22;;;;;;;7.43;4.93;;;26.50;1.00;;;;;;7367819;19;20537;-69
2022/08/05 00:22:05;;;;;;;6.80;5.03;;;26.40;1.00;;;;;;7364759;19;20010;-69
2022/08/05 00:24:40;;;;;;;7.32;5.20;;;26.30;1.00;;;;;;7369395;19;20082;-70
2022/08/05 00:27:11;;;;;;;9.43;5.53;;;26.30;1.00;;;;;;7366181;19;20011;-70
2022/08/05 00:29:45;;;;;;;8.73;5.18;;;26.30;1.00;;;;;;7388947;19;20038;-69
2022/08/05 00:32:15;;;;;;;5.90;4.68;;;26.10;1.00;;;;;;7363468;19;20687;-69
2022/08/05 00:34:46;;;;;;;10.30;4.97;;;26.00;1.00;;;;;;7369554;19;20027;-69
2022/08/05 00:37:37;;;;;;;8.15;4.63;;;26.00;1.00;;;;;;7367975;19;20015;-70
2022/08/05 00:40:24;;;;;;;5.82;4.65;;;26.00;1.00;;;;;;7367624;19;20006;-70
2022/08/05 00:42:58;;;;;;;7.35;4.38;;;25.90;1.00;;;;;;7364504;19;20360;-69
2022/08/05 00:45:29;;;;;;;6.97;4.60;;;25.80;1.00;;;;;;7368997;19;20014;-70
2022/08/05 00:48:13;;;;;;;6.17;4.73;;;25.70;1.00;;;;;;7364691;19;20098;-69
2022/08/05 00:50:44;;;;;;;8.32;4.35;;;25.60;1.00;;;;;;7388619;19;20007;-68
2022/08/05 00:53:20;;;;;;;5.70;3.65;;;25.60;1.00;;;;;;7364082;19;20011;-68
2022/08/05 00:56:09;;;;;;;;;;;25.90;1.00;;;;;;7367154;19;20018;-70
2022/08/05 00:58:40;;;;;;;4.13;2.80;;;26.10;1.00;;;;;;7364310;19;19922;-69
2022/08/05 01:01:14;;;;;;;6.32;2.90;;;26.20;1.00;;;;;;7362973;19;20014;-69
2022/08/05 01:04:04;;;;;;;5.25;2.67;;;26.00;1.00;;;;;;7368153;19;20513;-69
2022/08/05 01:06:44;;;;;;;7.60;3.30;;;25.60;1.00;;;;;;7367078;19;20060;-69
2022/08/05 01:09:20;;;;;;;3.97;2.35;;;25.50;1.00;;;;;;7364538;19;20010;-68
2022/08/05 01:11:54;;;;;;;5.72;2.63;;;25.40;1.00;;;;;;7362011;19;20077;-68
2022/08/05 01:14:30;;;;;;;4.10;2.60;;;25.30;1.00;;;;;;7389867;19;20014;-68
2022/08/05 01:17:05;;;;;;;4.30;2.83;;;25.30;1.00;;;;;;7365485;19;20021;-68
2022/08/05 01:19:45;;;;;;;10.68;3.17;;;25.30;1.00;;;;;;7364814;19;20014;-70
2022/08/05 01:22:44;;;;;;;4.00;2.72;;;25.20;1.00;;;;;;7361548;19;20014;-69
2022/08/05 01:25:48;;;;;;;5.18;2.65;;;25.10;1.00;;;;;;7367881;19;20038;-69
2022/08/05 01:28:31;;;;;;;6.97;2.50;;;25.10;1.00;;;;;;7364081;19;20017;-68
2022/08/05 01:31:08;;;;;;;6.82;2.50;;;25.10;1.00;;;;;;7365454;19;20089;-68
2022/08/05 01:33:46;;;;;;;8.63;2.45;;;25.00;1.00;;;;;;7365882;19;20037;-68
2022/08/05 01:36:24;;;;;;;4.88;2.30;;;25.00;1.00;;;;;;7367558;19;20018;-69
2022/08/05 01:38:58;;;;;;;4.18;2.42;;;24.90;1.00;;;;;;7364032;19;20034;-70
2022/08/05 01:41:32;;;;;;;6.43;2.70;;;24.80;1.00;;;;;;7382619;19;20010;-68
2022/08/05 01:44:08;;;;;;;5.53;2.42;;;24.80;1.00;;;;;;7366332;19;20111;-68
2022/08/05 01:46:40;;;;;;;4.43;2.90;;;24.70;1.00;;;;;;7365364;19;20022;-68
2022/08/05 01:49:21;;;;;;;8.20;2.80;;;24.70;1.00;;;;;;7365124;19;20014;-68
2022/08/05 01:51:56;;;;;;;3.20;2.90;;;24.60;1.00;;;;;;7363563;19;20393;-68
2022/08/05 01:54:31;;;;;;;3.35;2.25;;;24.70;1.00;;;;;;7365833;19;20595;-68
2022/08/05 01:57:02;;;;;;;4.43;2.38;;;24.70;1.00;;;;;;7362149;19;20089;-69
2022/08/05 01:59:58;;;;;;;8.65;3.15;;;24.70;1.00;;;;;;7364425;19;20358;-69
2022/08/05 02:02:29;;;;;;;8.75;2.47;;;24.70;1.00;;;;;;7384262;19;20082;-69
2022/08/05 02:05:02;;;;;;;8.55;2.97;;;24.60;1.00;;;;;;7366932;19;20014;-68
2022/08/05 02:07:41;;;;;;;7.30;2.63;;;24.60;1.00;;;;;;7364188;19;20533;-68
2022/08/05 02:10:30;;;;;;;5.60;2.70;;;24.50;1.00;;;;;;7366085;19;20030;-69
2022/08/05 02:13:07;;;;;;;8.30;2.70;;;24.50;1.00;;;;;;7360890;19;20077;-68
2022/08/05 02:15:52;;;;;;;10.70;3.00;;;24.50;1.00;;;;;;7366561;19;20498;-69
2022/08/05 02:18:26;;;;;;;9.75;2.85;;;24.50;1.00;;;;;;7361607;19;20431;-68
2022/08/05 02:21:08;;;;;;;10.65;3.00;;;24.50;1.00;;;;;;7366045;19;20021;-68
2022/08/05 02:23:46;;;;;;;9.90;2.92;;;24.50;1.00;;;;;;7381980;19;20574;-69
2022/08/05 02:26:23;;;;;;;5.72;2.97;;;24.50;1.00;;;;;;7364866;19;20021;-68
2022/08/05 02:28:57;;;;;;;6.13;2.90;;;24.50;1.00;;;;;;7365853;19;20021;-68
2022/08/05 02:31:33;;;;;;;4.30;2.40;;;24.50;1.00;;;;;;7368774;19;20466;-68
2022/08/05 02:34:06;;;;;;;7.38;2.58;;;24.50;1.00;;;;;;7367717;19;20014;-68
2022/08/05 02:36:43;;;;;;;12.52;3.20;;;24.50;1.00;;;;;;7367692;19;20042;-67
2022/08/05 02:39:14;;;;;;;11.23;3.53;;;24.50;1.00;;;;;;7368799;19;20002;-68
2022/08/05 02:41:50;;;;;;;8.63;3.10;;;24.40;1.00;;;;;;7368995;19;20014;-70
2022/08/05 02:44:32;;;;;;;8.05;3.10;;;24.40;1.00;;;;;;7389416;19;20019;-69
2022/08/05 02:47:09;;;;;;;6.95;3.22;;;24.30;1.00;;;;;;7366202;19;20014;-68
2022/08/05 02:49:42;;;;;;;11.15;3.08;;;24.30;1.00;;;;;;7365326;19;20010;-68
2022/08/05 02:52:18;;;;;;;7.55;2.90;;;24.30;1.00;;;;;;7368086;19;20116;-68
2022/08/05 02:55:01;;;;;;;8.88;4.00;;;24.30;1.00;;;;;;7368197;19;20018;-69
2022/08/05 02:57:41;;;;;;;5.88;3.28;;;24.30;1.00;;;;;;7367244;19;20022;-69
2022/08/05 03:00:31;;;;;;;13.25;3.80;;;24.30;1.00;;;;;;7368411;19;20014;-68
2022/08/05 03:03:06;;;;;;;9.68;2.88;;;24.20;1.00;;;;;;7367603;19;20074;-68
2022/08/05 03:05:41;;;;;;;12.43;3.80;;;24.30;1.00;;;;;;7389470;19;20024;-69
2022/08/05 03:08:32;;;;;;;11.00;3.30;;;24.20;1.00;;;;;;7370288;19;20078;-69
2022/08/05 03:11:02;;;;;;;4.03;2.70;;;24.30;1.00;;;;;;7375390;19;20077;-69
2022/08/05 03:13:53;;;;;;;7.95;3.13;;;24.20;1.00;;;;;;7373862;19;20022;-69
2022/08/05 03:16:32;;;;;;;7.00;2.85;;;24.30;1.00;;;;;;7373616;19;20023;-69
2022/08/05 03:19:07;;;;;;;8.18;3.00;;;24.30;1.00;;;;;;7374741;19;20014;-69
2022/08/05 03:21:46;;;;;;;5.78;2.78;;;24.30;1.00;;;;;;7375882;19;20015;-69
2022/08/05 03:24:20;;;;;;;9.18;3.08;;;24.30;1.00;;;;;;7374435;19;20037;-69
2022/08/05 03:26:59;;;;;;;10.57;3.20;;;24.30;1.00;;;;;;7373372;19;20010;-69
2022/08/05 03:29:29;;;;;;;4.47;3.08;;;24.40;1.00;;;;;;7395643;19;20034;-69
2022/08/05 03:32:20;;;;;;;11.32;3.67;;;24.30;1.00;;;;;;7375063;19;20006;-69
2022/08/05 03:35:02;;;;;;;9.27;3.30;;;24.30;1.00;;;;;;7373998;19;20014;-68
2022/08/05 03:37:34;;;;;;;7.70;3.05;;;24.30;1.00;;;;;;7373700;19;20010;-69
2022/08/05 03:40:16;;;;;;;5.53;3.03;;;24.20;1.00;;;;;;7374424;19;20022;-68
2022/08/05 03:43:01;;;;;;;9.30;3.28;;;24.20;1.00;;;;;;7373822;19;20085;-70
2022/08/05 03:45:51;;;;;;;13.95;3.55;;;24.20;1.00;;;;;;7372705;19;20025;-67
2022/08/05 03:48:27;;;;;;;6.30;3.40;;;24.20;1.00;;;;;;7374799;19;20022;-68
2022/08/05 03:51:09;;;;;;;9.23;3.28;;;24.10;1.00;;;;;;7372124;19;20015;-68
2022/08/05 03:54:05;;;;;;;4.50;3.30;;;24.10;1.00;;;;;;7373306;19;20101;-69
2022/08/05 03:56:55;;;;;;;5.13;3.00;;;24.10;1.00;;;;;;7371738;19;20552;-68
2022/08/05 03:59:32;;;;;;;5.82;3.58;;;24.00;1.00;;;;;;7395538;19;20071;-69
2022/08/05 04:02:25;;;;;;;8.10;3.90;;;23.90;1.00;;;;;;7374278;19;20012;-69
2022/08/05 04:05:14;;;;;;;7.97;3.38;;;24.00;1.00;;;;;;7373264;19;20006;-69
2022/08/05 04:07:48;;;;;;;7.80;3.20;;;24.00;1.00;;;;;;7372326;19;20014;-68
2022/08/05 04:10:29;;;;;;;10.43;3.10;;;24.00;1.00;;;;;;7372003;19;20103;-69
2022/08/05 04:13:09;;;;;;;6.35;3.13;;;23.80;1.00;;;;;;7373468;19;20025;-68
2022/08/05 04:15:38;;;;;;;6.18;3.22;;;23.80;1.00;;;;;;7373557;19;20033;-68
2022/08/05 04:18:29;;;;;;;8.07;3.28;;;23.90;1.00;;;;;;7372563;19;20010;-68
2022/08/05 04:20:59;;;;;;;5.60;2.92;;;24.00;1.00;;;;;;7371595;19;20025;-68
2022/08/05 04:23:33;;;;;;;13.52;3.83;;;24.30;1.00;;;;;;7393775;19;20026;-69
2022/08/05 04:26:22;;;;;;;6.80;3.08;;;24.30;1.00;;;;;;7371208;19;20450;-69
2022/08/05 04:28:53;;;;;;;7.07;3.47;;;24.30;1.00;;;;;;7372305;19;20050;-69
2022/08/05 04:31:23;;;;;;;5.75;3.33;;;24.30;1.00;;;;;;7372745;19;20114;-69
2022/08/05 04:34:02;;;;;;;7.88;3.80;;;24.20;1.00;;;;;;7372272;19;20014;-69
2022/08/05 04:36:52;;;;;;;10.45;3.30;;;24.20;1.00;;;;;;7371750;19;20021;-68
2022/08/05 04:39:25;;;;;;;7.53;3.42;;;24.80;1.00;;;;;;7372934;19;20056;-69
2022/08/05 04:41:56;;;;;;;;;;;24.50;1.00;;;;;;7370877;19;20029;-68
2022/08/05 04:44:26;;;;;;;9.65;3.70;;;24.30;1.00;;;;;;7392188;19;20398;-68
2022/08/05 04:46:59;;;;;;;12.20;3.70;;;24.30;1.00;;;;;;7370323;19;20060;-68
2022/08/05 04:49:39;;;;;;;10.82;3.40;;;24.20;1.00;;;;;;7371483;19;20042;-69
2022/08/05 04:52:29;;;;;;;9.23;3.88;;;24.20;1.00;;;;;;7372233;19;20074;-68
2022/08/05 04:55:06;;;;;;;5.88;3.80;;;24.10;1.00;;;;;;7372187;19;20011;-69
2022/08/05 04:57:46;;;;;;;11.25;3.88;;;24.20;1.00;;;;;;7369453;19;20006;-68
2022/08/05 05:00:23;;;;;;;7.35;3.60;;;24.00;1.00;;;;;;7371625;19;20014;-69
2022/08/05 05:02:53;;;;;;;10.60;3.67;;;24.80;1.00;;;;;;7371324;19;20010;-68
2022/08/05 05:05:23;;;;;;;8.00;3.70;;;24.40;1.00;;;;;;7393132;19;20014;-69
2022/08/05 05:07:58;;;;;;;9.77;3.85;;;24.40;1.00;;;;;;7370866;19;20089;-68
2022/08/05 05:10:40;;;;;;;9.70;4.03;;;24.80;1.00;;;;;;7370517;19;20481;-69
2022/08/05 05:13:24;;;;;;;9.63;4.17;;;24.90;1.00;;;;;;7370391;19;20048;-68
2022/08/05 05:16:01;;;;;;;9.68;4.18;;;25.10;1.00;;;;;;7370052;19;20271;-68
2022/08/05 05:18:35;;;;;;;6.80;3.70;;;25.70;1.00;;;;;;7371107;19;20007;-68
2022/08/05 05:21:06;;;;;;;10.55;3.83;;;25.70;1.00;;;;;;7370789;19;20465;-68
2022/08/05 05:23:35;;;;;;;8.20;3.85;;;25.90;1.00;;;;;;7392032;19;20015;-69
2022/08/05 05:26:28;;;;;;;7.57;4.35;;;26.40;1.00;;;;;;7370120;19;20470;-67
2022/08/05 05:29:02;;;;;;;10.07;3.80;;;26.40;1.00;;;;;;7370860;19;20018;-68
2022/08/05 05:31:44;;;;;;;12.30;3.75;;;26.70;1.00;;;;;;7368464;19;20342;-68
2022/08/05 05:34:15;;;;;;;6.45;3.40;;;27.00;1.00;;;;;;7370839;19;20362;-68
2022/08/05 05:36:55;;;;;;;7.60;3.83;;;28.10;1.00;;;;;;7368368;19;20077;-68
2022/08/05 05:39:25;;;;;;;9.27;4.43;;;28.80;1.00;;;;;;7370249;19;20072;-68
2022/08/05 05:42:06;;;;;;;11.05;3.70;;;28.80;1.00;;;;;;7370398;19;20021;-69
2022/08/05 05:44:36;;;;;;;7.90;3.85;;;29.50;1.00;;;;;;7391856;19;20019;-69
2022/08/05 05:47:14;;;;;;;6.10;3.45;;;28.80;1.00;;;;;;7367957;19;20029;-68
2022/08/05 05:49:50;;;;;;;10.85;3.88;;;27.60;1.00;;;;;;7369360;19;20021;-68
2022/08/05 05:52:25;;;;;;;8.45;4.43;;;27.50;1.00;;;;;;7368635;19;20019;-68
2022/08/05 05:55:03;;;;;;;5.65;3.55;;;27.40;1.00;;;;;;7370227;19;20018;-68
2022/08/05 05:57:46;;;;;;;8.25;3.72;;;26.40;1.00;;;;;;7368209;19;20094;-67
2022/08/05 06:00:23;;;;;;;13.32;3.50;;;26.10;1.00;;;;;;7370452;19;20015;-67
2022/08/05 06:03:02;;;;;;;8.05;3.20;;;26.20;1.00;;;;;;7369219;19;20085;-67
2022/08/05 06:05:52;;;;;;;6.15;3.17;;;26.30;1.00;;;;;;7367867;19;20015;-68
2022/08/05 06:08:24;;;;;;;5.70;3.15;;;26.20;1.00;;;;;;7391450;19;20034;-68
2022/08/05 06:11:01;;;;;;;8.38;3.20;;;26.30;1.00;;;;;;7367644;19;20014;-69
2022/08/05 06:13:35;;;;;;;3.22;2.85;;;26.60;1.00;;;;;;7368002;19;20088;-65
2022/08/05 06:16:22;;;;;;;5.55;3.03;;;26.30;1.00;;;;;;7368035;19;20038;-68
2022/08/05 06:19:01;;;;;;;5.40;3.00;;;26.30;1.00;;;;;;7368953;19;20015;-65
2022/08/05 06:21:36;;;;;;;6.85;3.38;;;26.50;1.00;;;;;;7368387;19;20547;-67
2022/08/05 06:24:11;;;;;;;4.60;3.25;;;26.60;1.00;;;;;;7368990;19;20010;-67
2022/08/05 06:26:43;;;;;;;5.20;2.72;;;26.40;1.00;;;;;;7388374;19;20011;-68
2022/08/05 06:29:24;;;;;;;7.88;3.17;;;26.40;1.00;;;;;;7369172;19;20007;-67
2022/08/05 06:32:14;;;;;;;5.97;3.08;;;26.80;1.00;;;;;;7366608;19;20013;-67
2022/08/05 06:34:58;;;;;;;4.73;3.27;;;27.70;1.00;;;;;;7364991;19;20015;-67
2022/08/05 06:37:34;;;;;;;6.00;2.75;;;28.10;1.00;;;;;;7366726;19;20379;-67
2022/08/05 06:40:24;;;;;;;5.03;3.03;;;28.80;1.00;;;;;;7368639;19;20014;-68
2022/08/05 06:43:01;;;;;;;7.43;3.17;;;27.40;1.00;;;;;;7369138;19;20019;-67
2022/08/05 06:45:33;;;;;;;5.47;2.90;;;26.90;1.00;;;;;;7381482;19;20073;-68
2022/08/05 06:48:23;;;;;;;9.15;3.45;;;26.80;1.00;;;;;;7381784;19;20010;-68
2022/08/05 06:51:13;;;;;;;5.25;3.15;;;27.10;1.00;;;;;;7382331;19;20015;-67
2022/08/05 06:53:59;;;;;;;5.03;2.90;;;26.80;1.00;;;;;;7382205;19;20023;-68
2022/08/05 06:56:31;;;;;;;5.20;3.05;;;27.20;1.00;;;;;;7401614;19;20014;-68
2022/08/05 06:59:03;;;;;;;4.73;3.10;;;27.20;1.00;;;;;;7380902;19;20013;-67
2022/08/05 07:01:41;;;;;;;5.90;3.03;;;26.80;1.00;;;;;;7381016;19;20010;-67
2022/08/05 07:04:11;;;;;;;3.67;2.58;;;26.30;1.00;;;;;;7381727;19;20018;-68
2022/08/05 07:06:42;;;;;;;6.70;3.22;;;27.00;1.00;;;;;;7381053;19;20109;-67
2022/08/05 07:09:12;;;;;;;3.83;2.92;;;26.80;1.00;;;;;;7381569;19;20014;-68
2022/08/05 07:11:44;;;;;;;4.25;2.88;;;27.10;1.00;;;;;;7402007;19;20034;-67
2022/08/05 07:17:05;;;;;;;6.45;2.97;;;27.00;1.00;;;;;;7378063;19;20018;-66
2022/08/05 07:19:55;;;;;;;4.65;3.10;;;26.70;1.00;;;;;;7380920;19;20018;-67
2022/08/05 07:22:45;;;;;;;5.68;2.83;;;27.20;1.00;;;;;;7379903;19;20021;-68
2022/08/05 07:25:19;;;;;;;6.03;2.65;;;27.40;1.00;;;;;;7380709;19;20018;-68
2022/08/05 07:28:09;;;;;;;9.98;2.90;;;27.70;1.00;;;;;;7380329;19;20015;-68
2022/08/05 07:30:48;;;;;;;5.30;2.72;;;27.30;1.00;;;;;;7378550;19;20017;-67
2022/08/05 07:33:24;;;;;;;6.85;2.83;;;27.70;1.00;;;;;;7379067;19;20030;-67
2022/08/05 07:36:06;;;;;;;4.78;2.28;;;27.90;1.00;;;;;;7379061;19;20022;-67
2022/08/05 07:38:50;;;;;;;6.10;2.28;;;27.70;1.00;;;;;;7385716;19;20018;-68
2022/08/05 07:41:26;;;;;;;3.10;2.38;;;27.80;1.00;;;;;;7402451;19;20010;-68
2022/08/05 07:44:16;;;;;;;3.47;2.00;;;27.90;1.00;;;;;;7379560;19;20018;-69
2022/08/05 07:46:49;;;;;;;3.55;2.28;;;27.90;1.00;;;;;;7377521;19;20014;-69
2022/08/05 07:49:21;;;;;;;3.95;2.28;;;27.90;1.00;;;;;;7380134;19;20014;-68
2022/08/05 07:51:51;;;;;;;2.40;1.83;;;28.10;1.00;;;;;;7379904;19;20010;-68
2022/08/05 07:54:25;;;;;;;3.88;1.90;;;27.60;1.00;;;;;;7378975;19;20034;-67
2022/08/05 07:57:02;;;;;;;6.90;2.35;;;27.90;1.00;;;;;;7369126;19;20010;-68
2022/08/05 07:59:53;;;;;;;2.75;1.73;;;28.10;1.00;;;;;;7372771;19;20400;-69
2022/08/05 08:02:27;;;;;;;6.78;2.17;;;28.20;1.00;;;;;;7394736;19;20477;-67
2022/08/05 08:05:20;;;;;;;5.72;2.30;;;27.70;1.00;;;;;;7373191;19;20091;-68
2022/08/05 08:07:50;;;;;;;2.53;2.08;;;28.20;1.00;;;;;;7371421;19;20082;-69
2022/08/05 08:10:29;;;;;;;3.53;2.03;;;27.90;1.00;;;;;;7372694;19;20200;-66
2022/08/05 08:13:00;;;;;;;4.28;2.20;;;27.70;1.00;;;;;;7370624;19;20006;-66
2022/08/05 08:15:30;;;;;;;2.15;1.95;;;27.40;1.00;;;;;;7372198;19;20014;-67
2022/08/05 08:18:20;;;;;;;2.28;2.08;;;27.70;1.00;;;;;;7372727;19;20026;-66
2022/08/05 08:20:53;;;;;;;2.08;1.73;;;27.90;1.00;;;;;;7389341;19;20013;-70
2022/08/05 08:23:32;;;;;;;3.35;2.22;;;28.00;1.00;;;;;;7396306;19;20014;-66
2022/08/05 08:26:22;;;;;;;2.20;1.90;;;27.50;1.00;;;;;;7370983;19;20010;-68
2022/08/05 08:28:59;;;;;;;3.85;2.10;;;27.70;1.00;;;;;;7371529;19;20025;-68
2022/08/05 08:31:49;;;;;;;3.03;2.05;;;28.30;1.00;;;;;;7371833;19;20014;-68
2022/08/05 08:34:19;;;;;;;3.13;2.40;;;28.40;1.00;;;;;;7371986;19;20011;-67
2022/08/05 08:37:04;;;;;;;2.03;1.83;;;28.40;1.00;;;;;;7369925;19;20474;-68
2022/08/05 08:39:35;;;;;;;4.57;2.22;;;28.40;1.00;;;;;;7370814;19;20013;-67
2022/08/05 08:42:07;;;;;;;2.05;1.80;;;28.80;1.00;;;;;;7372032;19;20035;-67
2022/08/05 08:44:59;;;;;;;3.17;1.80;;;28.30;1.00;;;;;;7371136;19;20019;-68
2022/08/05 08:47:52;;;;;;;3.92;2.30;;;28.60;1.00;;;;;;7389929;19;20786;-68
2022/08/05 08:50:45;;;;;;;5.20;2.20;;;28.20;1.00;;;;;;7371963;19;20014;-69
2022/08/05 08:53:40;;;;;;;2.75;2.00;;;27.90;1.00;;;;;;7368900;19;20022;-67
2022/08/05 08:56:14;;;;;;;2.13;1.92;;;28.20;1.00;;;;;;7370157;19;20027;-67
2022/08/05 08:58:44;;;;;;;7.00;2.10;;;28.30;1.00;;;;;;7371090;19;20010;-67
2022/08/05 09:01:18;;;;;;;2.35;2.10;;;28.60;1.00;;;;;;7371896;19;20030;-67
2022/08/05 09:03:50;;;;;;;3.17;1.70;;;29.00;1.00;;;;;;7370595;19;20010;-67
2022/08/05 09:06:28;;;;;;;2.88;1.98;;;28.80;1.00;;;;;;7370280;19;20362;-66
2022/08/05 09:09:03;;;;;;;2.65;1.70;;;28.30;1.00;;;;;;7370069;19;20085;-69
2022/08/05 09:11:35;;;;;;;;;;;28.50;1.00;;;;;;7394084;19;20014;-68
2022/08/05 09:14:23;;;;;;;2.85;1.92;;;28.60;1.00;;;;;;7369386;19;19953;-68
2022/08/05 09:17:14;;;;;;;3.83;2.22;;;28.60;1.00;;;;;;7368347;19;20363;-68
2022/08/05 09:20:06;;;;;;;3.38;2.10;;;29.00;1.00;;;;;;7370399;19;20077;-68
2022/08/05 09:23:06;;;;;;;2.20;1.90;;;29.10;1.00;;;;;;7368172;19;20014;-68
2022/08/05 09:25:42;;;;;;;4.07;2.10;;;29.10;1.00;;;;;;7369285;19;20368;-68
2022/08/05 09:28:33;;;;;;;3.33;1.90;;;29.00;1.00;;;;;;7369609;19;20010;-69
2022/08/05 09:31:06;;;;;;;1.90;1.80;;;29.70;1.00;;;;;;7370470;19;20030;-68
2022/08/05 09:33:57;;;;;;;2.20;2.00;;;29.80;1.00;;;;;;7369649;19;20014;-69
2022/08/05 09:36:40;;;;;;;4.80;2.22;;;29.20;1.00;;;;;;7370158;19;20454;-68
2022/08/05 09:39:25;;;;;;;2.60;1.98;;;30.10;1.00;;;;;;7369753;19;20479;-67
2022/08/05 09:42:18;;;;;;;3.75;1.98;;;30.40;1.00;;;;;;7370585;19;20052;-67
2022/08/05 09:44:54;;;;;;;3.67;1.95;;;30.40;1.00;;;;;;7368633;19;20074;-68
2022/08/05 09:47:27;;;;;;;3.60;2.30;;;29.40;1.00;;;;;;7389374;19;20034;-67
2022/08/05 09:50:21;;;;;;;3.60;2.00;;;30.00;1.00;;;;;;7368873;19;20782;-68
2022/08/05 09:53:11;;;;;;;3.38;1.90;;;29.50;1.00;;;;;;7367561;19;20375;-67
2022/08/05 09:55:56;;;;;;;2.88;2.00;;;30.10;1.00;;;;;;7367876;19;20045;-68
2022/08/05 09:58:34;;;;;;;3.65;1.90;;;30.10;1.00;;;;;;7369582;19;20037;-68
2022/08/05 10:01:07;;;;;;;4.03;1.80;;;30.20;1.00;;;;;;7369768;19;20474;-68
2022/08/05 10:03:58;;;;;;;6.53;1.85;;;29.90;1.00;;;;;;7367929;19;20106;-67
2022/08/05 10:06:29;;;;;;;2.38;1.77;;;29.80;1.00;;;;;;7354913;19;20015;-67
2022/08/05 10:09:12;;;;;;;7.68;2.20;;;30.00;1.00;;;;;;7361601;19;20023;-66
2022/08/05 10:12:08;;;;;;;2.97;1.92;;;30.40;1.00;;;;;;7368212;19;20022;-68
2022/08/05 10:15:23;;;;;;;3.28;1.58;;;30.30;1.00;;;;;;7368304;19;20018;-68
2022/08/05 10:18:09;;;;;;;2.28;1.80;;;30.10;1.00;;;;;;7365537;19;20082;-69
2022/08/05 10:20:42;;;;;;;2.30;1.65;;;30.40;1.00;;;;;;7390481;19;20017;-68
2022/08/05 10:23:19;;;;;;;6.00;2.20;;;30.50;1.00;;;;;;7368573;19;20077;-68
2022/08/05 10:26:11;;;;;;;3.97;2.03;;;30.50;1.00;;;;;;7366720;19;20018;-68
2022/08/05 10:28:44;;;;;;;2.20;1.90;;;30.60;1.00;;;;;;7367633;19;20357;-68
2022/08/05 10:31:18;;;;;;;4.63;1.70;;;30.70;1.00;;;;;;7368723;19;20017;-69
2022/08/05 10:34:09;;;;;;;4.10;1.70;;;30.10;1.00;;;;;;7367390;19;20429;-67
2022/08/05 10:36:40;;;;;;;3.05;2.00;;;30.40;1.00;;;;;;7366758;19;20266;-67
2022/08/05 10:39:15;;;;;;;2.10;1.90;;;30.60;1.00;;;;;;7367898;19;20022;-69
2022/08/05 10:42:13;;;;;;;3.22;2.10;;;30.90;1.00;;;;;;7367998;19;20014;-68
2022/08/05 10:44:48;;;;;;;2.83;2.03;;;30.60;1.00;;;;;;7390614;19;20703;-68
2022/08/05 10:47:20;;;;;;;4.20;1.80;;;31.40;1.00;;;;;;7366019;19;20019;-68
2022/08/05 10:50:05;;;;;;;2.90;2.00;;;30.60;1.00;;;;;;7362496;19;20007;-68
2022/08/05 10:52:58;;;;;;;2.67;1.80;;;30.60;1.00;;;;;;7367191;19;20010;-68
2022/08/05 10:55:29;;;;;;;4.30;1.70;;;30.60;1.00;;;;;;7365657;19;20009;-68
2022/08/05 10:58:12;;;;;;;4.32;1.85;;;30.70;1.00;;;;;;7367981;19;20071;-70
2022/08/05 11:00:48;;;;;;;5.03;1.65;;;31.30;1.00;;;;;;7366901;19;20803;-71
2022/08/05 11:03:34;;;;;;;3.05;1.98;;;30.40;1.00;;;;;;7368110;19;20018;-70
2022/08/05 11:06:07;;;;;;;1.77;1.65;;;29.90;1.00;;;;;;7367031;19;20013;-70
2022/08/05 11:09:16;;;;;;;2.28;1.67;;;30.60;1.00;;;;;;7389233;19;20225;-72
2022/08/05 11:11:50;;;;;;;2.03;1.73;;;31.20;1.00;;;;;;7264937;19;2004066;-73
2022/08/05 11:14:27;;;;;;;3.47;1.80;;;31.70;1.00;;;;;;7383705;19;20022;-70
2022/08/05 11:17:36;;;;;;;3.20;1.80;;;31.50;1.00;;;;;;7364877;19;20092;-68
2022/08/05 11:20:56;;;;;;;4.35;1.60;;;31.10;1.00;;;;;;7367215;19;20030;-69
2022/08/05 11:23:36;;;;;;;3.78;1.70;;;31.30;1.00;;;;;;7363680;19;20355;-71
2022/08/05 11:26:26;;;;;;;2.42;1.80;;;31.20;1.00;;;;;;7363838;19;20015;-69
2022/08/05 11:29:05;;;;;;;3.65;1.63;;;31.40;1.00;;;;;;7365578;19;20039;-70
2022/08/05 11:31:46;;;;;;;2.65;1.77;;;31.40;1.00;;;;;;7372779;19;20049;-69
2022/08/05 11:34:40;;;;;;;4.00;1.80;;;31.20;1.00;;;;;;7369175;19;20014;-67
2022/08/05 11:38:00;;;;;;;1.60;1.50;;;31.40;1.00;;;;;;7370831;19;20018;-68
2022/08/05 11:41:10;;;;;;;2.97;1.85;;;31.80;1.00;;;;;;7370657;19;20010;-70
2022/08/05 11:44:03;;;;;;;2.08;1.60;;;31.90;1.00;;;;;;7372059;19;20578;-69
2022/08/05 11:46:42;;;;;;;3.47;1.50;;;32.40;1.00;;;;;;7370135;19;20097;-70
2022/08/05 11:49:32;;;;;;;2.28;1.50;;;32.60;1.00;;;;;;7373105;19;20002;-69
2022/08/05 11:52:03;;;;;;;4.03;1.70;;;32.70;1.00;;;;;;7372416;19;20033;-66
2022/08/05 11:54:43;;;;;;;2.92;1.65;;;32.20;1.00;;;;;;7369950;19;20052;-68
2022/08/05 11:57:29;;;;;;;3.83;1.40;;;32.20;1.00;;;;;;7370717;19;20404;-66
2022/08/05 12:00:27;;;;;;;3.80;2.05;;;31.80;1.00;;;;;;7373278;19;20507;-66
2022/08/05 12:02:59;;;;;;;1.92;1.73;;;32.20;1.00;;;;;;7371140;19;20022;-67
2022/08/05 12:05:30;;;;;;;2.00;1.58;;;32.50;1.00;;;;;;7393846;19;20018;-68
2022/08/05 12:08:11;;;;;;;4.05;1.90;;;31.90;1.00;;;;;;7371042;19;20014;-67
2022/08/05 12:10:51;;;;;;;2.45;2.05;;;31.80;1.00;;;;;;7370863;19;20011;-66
2022/08/05 12:13:21;;;;;;;1.60;1.50;;;31.80;1.00;;;;;;7372178;19;20010;-67
2022/08/05 12:16:18;;;;;;;2.40;1.67;;;32.50;1.00;;;;;;7371226;19;20017;-67
2022/08/05 12:18:55;;;;;;;6.93;1.75;;;32.10;1.00;;;;;;7372757;19;20015;-66
2022/08/05 12:21:27;;;;;;;3.00;1.50;;;32.10;1.00;;;;;;7370932;19;20097;-66
2022/08/05 12:24:04;;;;;;;4.53;1.90;;;31.80;1.00;;;;;;7371014;19;20014;-68
2022/08/05 12:26:40;;;;;;;3.35;1.77;;;32.00;1.00;;;;;;7384697;19;20018;-67
2022/08/05 12:29:14;;;;;;;4.85;2.17;;;32.00;1.00;;;;;;7364293;19;20021;-67
2022/08/05 12:31:53;;;;;;;3.63;1.88;;;31.70;1.00;;;;;;7367844;19;20015;-66
2022/08/05 12:34:27;;;;;;;4.50;1.70;;;31.70;1.00;;;;;;7365679;19;20561;-67
2022/08/05 12:36:59;;;;;;;4.07;1.75;;;31.70;1.00;;;;;;7363448;19;20022;-68
2022/08/05 12:39:34;;;;;;;4.15;1.75;;;32.00;1.00;;;;;;7368119;19;20006;-68
2022/08/05 12:42:14;;;;;;;2.60;1.73;;;32.00;1.00;;;;;;7366145;19;20018;-68
2022/08/05 12:44:45;;;;;;;4.95;2.00;;;32.10;1.00;;;;;;7389835;19;20014;-68
2022/08/05 12:47:28;;;;;;;2.10;1.90;;;32.50;1.00;;;;;;7361050;19;20011;-68
2022/08/05 12:50:00;;;;;;;3.28;1.67;;;32.60;1.00;;;;;;7367133;19;20010;-67
2022/08/05 12:52:35;;;;;;;1.67;1.58;;;32.60;1.00;;;;;;7366215;19;20015;-66
2022/08/05 12:55:23;;;;;;;3.03;1.90;;;32.60;1.00;;;;;;7366511;19;20014;-67
2022/08/05 12:57:58;;;;;;;3.17;1.75;;;32.50;1.00;;;;;;7361142;19;20475;-69
2022/08/05 13:00:50;;;;;;;3.13;2.08;;;32.90;1.00;;;;;;7365400;19;20017;-67
2022/08/05 13:03:40;;;;;;;3.05;1.98;;;32.50;1.00;;;;;;7366389;19;20018;-66
2022/08/05 13:06:18;;;;;;;3.65;2.20;;;32.50;1.00;;;;;;7364458;19;20378;-67
2022/08/05 13:08:49;;;;;;;2.88;1.95;;;32.30;1.00;;;;;;7379689;19;20474;-67
2022/08/05 13:11:22;;;;;;;3.00;1.60;;;32.70;1.00;;;;;;7366813;19;20479;-66
2022/08/05 13:14:18;;;;;;;2.28;1.73;;;32.50;1.00;;;;;;7363635;19;20269;-67
2022/08/05 13:16:56;;;;;;;4.10;1.77;;;32.70;1.00;;;;;;7361941;19;20014;-66
2022/08/05 13:19:28;;;;;;;2.95;1.70;;;32.50;1.00;;;;;;7366101;19;20023;-68
2022/08/05 13:22:18;;;;;;;4.85;2.08;;;32.10;1.00;;;;;;7366336;19;20021;-67
2022/08/05 13:24:59;;;;;;;1.90;1.70;;;32.40;1.00;;;;;;7366622;19;20086;-67
2022/08/05 13:27:38;;;;;;;2.00;1.80;;;32.50;1.00;;;;;;7359955;19;20026;-66
2022/08/05 13:30:13;;;;;;;2.92;1.98;;;32.50;1.00;;;;;;7367521;19;20006;-67
2022/08/05 13:33:03;;;;;;;4.35;2.00;;;32.60;1.00;;;;;;7368458;19;20015;-68
2022/08/05 13:35:33;;;;;;;2.72;1.75;;;32.40;1.00;;;;;;7387686;19;20018;-67
2022/08/05 13:38:19;;;;;;;2.80;1.70;;;32.10;1.00;;;;;;7361004;19;20021;-67
2022/08/05 13:41:05;;;;;;;1.55;1.45;;;32.00;1.00;;;;;;7365155;19;20050;-66
2022/08/05 13:43:36;;;;;;;2.20;1.60;;;31.70;1.00;;;;;;7366239;19;20498;-71
2022/08/05 13:46:23;;;;;;;3.20;1.70;;;31.50;1.00;;;;;;7365259;19;20035;-67
2022/08/05 13:49:14;;;;;;;2.13;1.60;;;31.70;1.00;;;;;;7363803;19;20018;-66
2022/08/05 13:51:44;;;;;;;3.63;1.80;;;31.90;1.00;;;;;;7363721;19;20006;-66
2022/08/05 13:54:19;;;;;;;1.95;1.70;;;31.40;1.00;;;;;;7362846;19;20018;-66
2022/08/05 13:56:54;;;;;;;1.63;1.52;;;31.30;1.00;;;;;;7359678;19;20023;-66
2022/08/05 13:59:24;;;;;;;2.38;1.90;;;31.80;1.00;;;;;;7385777;19;20484;-66
2022/08/05 14:01:59;;;;;;;2.47;1.92;;;31.80;1.00;;;;;;7364379;19;20024;-66
2022/08/05 14:07:21;;;;;;;3.47;1.80;;;31.60;1.00;;;;;;7355248;19;20013;-67
2022/08/05 14:10:13;;;;;;;4.90;1.95;;;31.30;1.00;;;;;;7363414;19;20505;-66